Bapchule, Arizona
Current Conditions -  °F | °C
As of 8:47 PM on Sunday 19 Oct 2014 (Local Time) from KCHD Reporting Station
Broken Clouds Broken Clouds  
Wind Chill: 73°   Ceiling: 10000
Heat Index: 73°   Visibility: 15mi
Dew Point: 50°   Wind: 8mph
Humidity: 44%   Direction: 100°E
Pressure: 29.89"   Gusts: NA
Location:  33.14°N, 111.87°W
Report Text: KCHD 200347Z 10007KT 15SM BKN100 BKN200 23/10 A2989 RMK LAST
Loading
Personal Weather Stations






























Interactive Weather Map
Tropical Storm Tracking
New forecast layout! Learn more

10-Day Weather Forecast

Advertisements
Track Severe Weather on mobile